Meteo Giornale » Osservazioni meteo Italia » Torino-Caselle

ore: 23:20 - Osservazioni Meteo Torino-Caselle
Lat. 45° 13' N Lon. 7° 39' E Alt. 301 metri s.l.m.

poco_nuvoloso Europe/Rome

12 °C

Poco Nuvoloso

Temp. 24 Ore

9 °C

21 °C

Nord

11.1 Km/h

Dew point 7 °C

Umidità 71 %

Visibilità  10 Km

Il sole sorge alle ore 05:59

Il sole tramonta alle ore 20:51

Data e Ora Cielo e Fenomeni T °C DP °C Um. % Pres. hPa Vis. km Vento km/h
Oggi h: 23:20 poco_nuvoloso Poco Nuvoloso 12 7 71 1006 10 N 11.1
Oggi h: 22:20 poco_nuvoloso Poco Nuvoloso 14 9 71 1005 10 N/NO 11.1
Oggi h: 21:20 coperto_temporali Temporale 17 7 51 1004 10 N 5.5
Oggi h: 20:50 nuvoloso Nuvoloso 16 9 63 1003 10 E 11.1
Oggi h: 20:20 poco_nuvoloso Poco Nuvoloso 18 8 51 1003 10 NE 9.3
Oggi h: 19:50 poco_nuvoloso Poco Nuvoloso 19 8 48 1003 10 E/NE 13
Oggi h: 19:20 poco_nuvoloso Poco Nuvoloso 20 8 45 1003 10 E/NE 9.3
Oggi h: 18:50 poco_nuvoloso Poco Nuvoloso 20 8 45 1003 10 E 13
Oggi h: 18:20 nuvoloso Nuvoloso 20 8 45 1003 10 E/NE 11.1
Oggi h: 17:20 nuvoloso Nuvoloso 20 7 42 1003 10 E 9.3
Oggi h: 16:50 nuvoloso Nuvoloso 21 6 37 1003 10 E/SE 11.1
Oggi h: 16:20 nuvoloso Nuvoloso 21 6 37 1003 10 N/NE 9.3
Oggi h: 15:50 nuvoloso Nuvoloso 19 7 45 1003 10 N 16.7
Oggi h: 15:20 nuvoloso Nuvoloso 19 9 52 1004 10 N 20.3
Oggi h: 14:50 nuvoloso Nuvoloso 19 6 42 1004 10 N 25.9
Oggi h: 14:20 molto_nuvoloso Rovescio nelle Vicinanze 19 5 39 1004 10 NO 25.9
Oggi h: 13:50 nuvoloso Rovescio nelle Vicinanze 21 7 40 1004 10 S/SO 13
Oggi h: 13:20 poco_nuvoloso Poco Nuvoloso 21 8 43 1004 10 S/SE 7.4
Oggi h: 12:50 sereno Sereno 20 8 45 1004 10 S/SE 9.3
Oggi h: 12:20 sereno Sereno 20 10 52 1004 10 E/SE 9.3
Oggi h: 11:50 sereno Sereno 19 10 55 1004 10 E/SE 9.3
Oggi h: 11:20 sereno Sereno 19 9 52 1005 10 N 3.7
Oggi h: 10:50 sereno Sereno 17 8 55 1005 10 N 3.7
Oggi h: 10:20 sereno Sereno 17 9 59 1005 10 N 5.5
Oggi h: 09:50 sereno Sereno 16 9 63 1005 10 N 5.5
Oggi h: 09:20 sereno Sereno 15 9 67 1005 10 N 5.5
Oggi h: 08:50 sereno Sereno 14 9 71 1005 10 N 5.5
Oggi h: 08:20 sereno Sereno 13 9 76 1005 10 N 1.8
Oggi h: 07:50 sereno Sereno 11 9 87 1005 10 N 3.7
Oggi h: 07:20 sereno Sereno 10 8 87 1005 10 N 5.5
Oggi h: 06:50 sereno Sereno 9 8 93 1006 10 N 1.8
Oggi h: 06:20 sereno Sereno 10 8 87 1006 10 O 9.3
Oggi h: 05:50 sereno Sereno 10 8 87 1006 10 O 7.4
Oggi h: 05:20 sereno Sereno 10 9 93 1006 10 O/SO 7.4
Oggi h: 04:50 sereno Sereno 11 9 87 1007 10 O/SO 9.3
Oggi h: 04:20 sereno Sereno 11 9 87 1007 10 O 7.4
Oggi h: 03:50 poco_nuvoloso Poco Nuvoloso 12 9 81 1007 10 NO 9.3
Oggi h: 03:20 nuvoloso Nuvoloso 12 10 87 1008 10 N/NO 11.1
Oggi h: 02:50 coperto_pioggia Pioggia Debole 12 10 87 1008 10 N/NE 9.3
Oggi h: 02:20 coperto_pioggia Pioggia Debole Temporale nelle Vicinanze 12 10 87 1008 8 N 9.3
Oggi h: 01:50 nuvoloso_temporali Temporale nelle Vicinanze 13 10 81 1008 8 N 11.1
Oggi h: 01:20 nuvoloso_temporali Temporale nelle Vicinanze 13 10 81 1008 10 N/NE 13
Oggi h: 00:50 nuvoloso_temporali Temporale nelle Vicinanze 13 10 81 1008 10 N/NE 13
Oggi h: 00:20 nuvoloso_temporali Temporale nelle Vicinanze 13 10 81 1007 10 NE 14.8
Ieri h: 23:50 nuvoloso_temporali Temporale nelle Vicinanze 12 10 87 1007 10 N/NE 11.1